Suederoog — ZDHC8 — position and weather

sailwx.info

Track history (hours):
 
Tides and Currents Weather Stations Pressure Air Temp Water Temp Dewpoint Dewpoint Depression Visibility Wind Speed Wind Dir Waves Ship Positions

Suederoog

Last reported at 2014-Oct-31 07:31 UTC. Time now 2014-Oct-31 07:44 UTC.
Position N 53°32' E 009°57'.

Length 161 m; draft 8.6 m.

Type: Cargo ship. MMSI: 236300000.

Date/timePositionNaut miles runAvg speedWind from/ knotsBaromVisibWave heightAir tempDewpointWater temp
2014-Oct-31 07:31N 53°32' E 009°57'1 0.9
2014-Oct-31 06:33N 53°32' E 009°56'1 0.9
2014-Oct-31 05:31N 53°32' E 009°55'0 0.0
2014-Oct-31 04:29N 53°32' E 009°55'0 0.0
2014-Oct-31 03:28N 53°32' E 009°55'0 0.0
2014-Oct-31 02:32N 53°32' E 009°55'0 0.0
2014-Oct-31 01:25N 53°32' E 009°55'0 0.0
2014-Oct-31 00:32N 53°32' E 009°55'0 0.0
2014-Oct-30 23:33N 53°32' E 009°55'0 0.0
2014-Oct-30 22:32N 53°32' E 009°55'0 0.0
2014-Oct-30 21:31N 53°32' E 009°55'0 0.0
2014-Oct-30 20:33N 53°32' E 009°55'0 0.0
2014-Oct-30 19:32N 53°32' E 009°55'0 0.0
2014-Oct-30 18:32N 53°32' E 009°55'0 0.0
2014-Oct-30 17:33N 53°32' E 009°55'3 3.2
2014-Oct-30 16:33N 53°33' E 009°50'1313.0
2014-Oct-30 15:33N 53°40' E 009°31'1717.4
2014-Oct-30 14:33N 53°53' E 009°12'2 2.0
2014-Oct-30 13:32N 53°54' E 009°09'1 1.4
2014-Oct-30 12:33N 53°55' E 009°10'5 4.8
2014-Oct-30 11:33N 53°58' E 009°16'7 6.6
2014-Oct-30 10:34N 54°04' E 009°19'7 6.5
2014-Oct-30 09:33N 54°10' E 009°25'7 7.0
2014-Oct-30 08:33N 54°13' E 009°36'21 3.0
2014-Oct-30 01:27N 54°21' E 010°10'2 2.0
2014-Oct-30 00:34N 54°23' E 010°11'6 6.5
2014-Oct-29 23:33N 54°29' E 010°16'3 2.6
2014-Oct-29 22:31N 54°31' E 010°18'0 0.0
2014-Oct-29 21:19N 54°31' E 010°18'0 0.1
2014-Oct-29 19:33N 54°31' E 010°18'7 7.0
2014-Oct-29 18:33N 54°33' E 010°30'37 9.2
2014-Oct-29 14:33N 54°30' E 011°33'1010.3
2014-Oct-29 13:33N 54°26' E 011°50'1010.3
2014-Oct-29 12:33N 54°26' E 012°07'21 9.9
2014-Oct-29 10:28N 54°42' E 012°31'5915.0
2014-Oct-29 06:32N 55°06' E 014°05'1616.0
2014-Oct-29 05:33N 55°17' E 014°23'1615.7
2014-Oct-29 04:33N 55°29' E 014°42'1615.7
2014-Oct-29 03:33N 55°37' E 015°05'6315.5
2014-Oct-28 23:28N 56°08' E 016°43'4715.9
2014-Oct-28 20:32N 56°36' E 017°51'1916.0
2014-Oct-28 19:20N 56°47' E 018°19'1416.0
2014-Oct-28 18:26N 56°58' E 018°37'1416.0
2014-Oct-28 17:33N 57°10' E 018°52'1616.0
2014-Oct-28 16:33N 57°22' E 019°10'1615.7
2014-Oct-28 15:33N 57°35' E 019°26'1615.3
2014-Oct-28 14:32N 57°48' E 019°43'16414.9
2014-Oct-28 03:32N 59°40' E 023°35'1515.5
2014-Oct-28 02:33N 59°44' E 024°04'1515.6
2014-Oct-28 01:33N 59°47' E 024°34'6014.9
2014-Oct-27 21:34N 60°12' E 026°23'1313.2
2014-Oct-27 20:33N 60°22' E 026°41'8 7.6
2014-Oct-27 19:32N 60°25' E 026°55'0 0.0
2014-Oct-27 18:33N 60°25' E 026°55'0 0.0
2014-Oct-27 17:33N 60°25' E 026°55'0 0.0
2014-Oct-27 16:31N 60°25' E 026°55'0 0.0
2014-Oct-27 15:31N 60°25' E 026°55'0 0.0
2014-Oct-27 14:31N 60°25' E 026°55'0 0.0
2014-Oct-27 13:31N 60°25' E 026°55'0 0.0
2014-Oct-27 12:31N 60°25' E 026°55'0 0.0
2014-Oct-27 11:31N 60°25' E 026°55'0 0.0
2014-Oct-27 10:31N 60°25' E 026°55'0 0.0
2014-Oct-27 09:31N 60°25' E 026°55'0 0.0
2014-Oct-27 08:31N 60°25' E 026°55'0 0.0
2014-Oct-27 07:31N 60°25' E 026°55'1 1.0
2014-Oct-27 06:33N 60°25' E 026°54'1615.5
2014-Oct-27 05:33N 60°16' E 026°28'1211.8
2014-Oct-27 04:33N 60°05' E 026°36'10913.5
2014-Oct-26 20:30N 59°54' E 030°14'0 0.0
2014-Oct-26 19:33N 59°54' E 030°14'0 0.0
2014-Oct-26 18:29N 59°54' E 030°14'0 0.0
2014-Oct-26 15:05N 59°54' E 030°14'0 0.0
2014-Oct-26 13:29N 59°54' E 030°14'0 0.0
2014-Oct-26 12:32N 59°54' E 030°14'0 0.1
2014-Oct-26 09:33N 59°54' E 030°14'0 0.0
2014-Oct-26 08:32N 59°54' E 030°14'1 0.6
2014-Oct-26 07:33N 59°53' E 030°13'1 0.3
2014-Oct-26 05:27N 59°53' E 030°12'0 0.0
2014-Oct-26 04:33N 59°53' E 030°12'0 0.0
2014-Oct-26 03:33N 59°53' E 030°12'0 0.0
2014-Oct-26 02:33N 59°53' E 030°12'0 0.0
2014-Oct-26 01:15N 59°53' E 030°12'0 0.0
2014-Oct-26 00:27N 59°53' E 030°12'0 0.0
2014-Oct-25 23:31N 59°53' E 030°12'0 0.0
2014-Oct-25 22:28N 59°53' E 030°12'0 0.0
2014-Oct-25 20:15N 59°53' E 030°12'0 0.0
2014-Oct-25 02:33N 59°53' E 030°12'92 8.8
2014-Oct-24 16:06N 59°60' E 027°09'710.5
2014-Oct-24 15:25N 59°59' E 026°55'910.5
2014-Oct-24 14:33N 59°59' E 026°37'1110.9
2014-Oct-24 13:32N 59°56' E 026°15'4910.9
2014-Oct-24 09:05N 59°45' E 024°41'810.8
2014-Oct-24 08:19N 59°43' E 024°25'1310.9
2014-Oct-24 07:06N 59°39' E 024°00'610.9
2014-Oct-24 06:33N 59°37' E 023°49'1110.9
2014-Oct-24 05:33N 59°34' E 023°29'30914.5
2014-Oct-23 08:16N 55°59' E 016°33'6016.0
2014-Oct-23 04:33N 55°30' E 015°00'1616.0
2014-Oct-23 03:33N 55°22' E 014°36'1616.1
2014-Oct-23 02:34N 55°09' E 014°19'1615.6
2014-Oct-23 01:33N 54°60' E 013°58'1616.1
2014-Oct-23 00:32N 54°54' E 013°31'7123.9
2014-Oct-22 21:33N 54°28' E 011°37'1514.9
2014-Oct-22 20:33N 54°25' E 012°02'13312.1
2014-Oct-22 09:33N 56°37' E 011°42'1514.6
2014-Oct-22 08:33N 56°51' E 011°48'1615.6
2014-Oct-22 07:34N 57°06' E 011°38'1515.3
2014-Oct-22 06:34N 57°20' E 011°28'1514.8
2014-Oct-22 05:34N 57°33' E 011°13'1515.4
2014-Oct-22 04:34N 57°43' E 010°52'1515.3
2014-Oct-22 03:33N 57°47' E 010°24'16615.1
2014-Oct-21 16:33N 55°39' E 007°10'1616.1
2014-Oct-21 15:33N 55°23' E 007°05'1615.7
2014-Oct-21 14:33N 55°07' E 007°05'1615.6
2014-Oct-21 13:33N 54°52' E 007°06'3815.8
2014-Oct-21 11:10N 54°16' E 007°28'1215.9
2014-Oct-21 10:25N 54°08' E 007°43'1415.9
2014-Oct-21 09:33N 54°02' E 008°03'1313.4
2014-Oct-21 08:33N 53°59' E 008°26'1312.6
2014-Oct-21 07:33N 53°52' E 008°44'  
Track history (hours):
 
Tides and Currents Weather Stations Pressure Air Temp Water Temp Dewpoint Dewpoint Depression Visibility Wind Speed Wind Dir Waves Ship Positions

Suederoog

Last reported at 2014-Oct-31 07:31 UTC. Time now 2014-Oct-31 07:44 UTC.
Position N 53°32' E 009°57'.

Length 161 m; draft 8.6 m.

Type: Cargo ship. MMSI: 236300000.

Date/timePositionNaut miles runAvg speedWind from/ knotsBaromVisibWave heightAir tempDewpointWater temp
2014-Oct-31 07:31N 53°32' E 009°57'1 0.9
2014-Oct-31 06:33N 53°32' E 009°56'1 0.9
2014-Oct-31 05:31N 53°32' E 009°55'0 0.0
2014-Oct-31 04:29N 53°32' E 009°55'0 0.0
2014-Oct-31 03:28N 53°32' E 009°55'0 0.0
2014-Oct-31 02:32N 53°32' E 009°55'0 0.0
2014-Oct-31 01:25N 53°32' E 009°55'0 0.0
2014-Oct-31 00:32N 53°32' E 009°55'0 0.0
2014-Oct-30 23:33N 53°32' E 009°55'0 0.0
2014-Oct-30 22:32N 53°32' E 009°55'0 0.0
2014-Oct-30 21:31N 53°32' E 009°55'0 0.0
2014-Oct-30 20:33N 53°32' E 009°55'0 0.0
2014-Oct-30 19:32N 53°32' E 009°55'0 0.0
2014-Oct-30 18:32N 53°32' E 009°55'0 0.0
2014-Oct-30 17:33N 53°32' E 009°55'3 3.2
2014-Oct-30 16:33N 53°33' E 009°50'1313.0
2014-Oct-30 15:33N 53°40' E 009°31'1717.4
2014-Oct-30 14:33N 53°53' E 009°12'2 2.0
2014-Oct-30 13:32N 53°54' E 009°09'1 1.4
2014-Oct-30 12:33N 53°55' E 009°10'5 4.8
2014-Oct-30 11:33N 53°58' E 009°16'7 6.6
2014-Oct-30 10:34N 54°04' E 009°19'7 6.5
2014-Oct-30 09:33N 54°10' E 009°25'7 7.0
2014-Oct-30 08:33N 54°13' E 009°36'21 3.0
2014-Oct-30 01:27N 54°21' E 010°10'2 2.0
2014-Oct-30 00:34N 54°23' E 010°11'6 6.5
2014-Oct-29 23:33N 54°29' E 010°16'3 2.6
2014-Oct-29 22:31N 54°31' E 010°18'0 0.0
2014-Oct-29 21:19N 54°31' E 010°18'0 0.1
2014-Oct-29 19:33N 54°31' E 010°18'7 7.0
2014-Oct-29 18:33N 54°33' E 010°30'37 9.2
2014-Oct-29 14:33N 54°30' E 011°33'1010.3
2014-Oct-29 13:33N 54°26' E 011°50'1010.3
2014-Oct-29 12:33N 54°26' E 012°07'21 9.9
2014-Oct-29 10:28N 54°42' E 012°31'5915.0
2014-Oct-29 06:32N 55°06' E 014°05'1616.0
2014-Oct-29 05:33N 55°17' E 014°23'1615.7
2014-Oct-29 04:33N 55°29' E 014°42'1615.7
2014-Oct-29 03:33N 55°37' E 015°05'6315.5
2014-Oct-28 23:28N 56°08' E 016°43'4715.9
2014-Oct-28 20:32N 56°36' E 017°51'1916.0
2014-Oct-28 19:20N 56°47' E 018°19'1416.0
2014-Oct-28 18:26N 56°58' E 018°37'1416.0
2014-Oct-28 17:33N 57°10' E 018°52'1616.0
2014-Oct-28 16:33N 57°22' E 019°10'1615.7
2014-Oct-28 15:33N 57°35' E 019°26'1615.3
2014-Oct-28 14:32N 57°48' E 019°43'16414.9
2014-Oct-28 03:32N 59°40' E 023°35'1515.5
2014-Oct-28 02:33N 59°44' E 024°04'1515.6
2014-Oct-28 01:33N 59°47' E 024°34'6014.9
2014-Oct-27 21:34N 60°12' E 026°23'1313.2
2014-Oct-27 20:33N 60°22' E 026°41'8 7.6
2014-Oct-27 19:32N 60°25' E 026°55'0 0.0
2014-Oct-27 18:33N 60°25' E 026°55'0 0.0
2014-Oct-27 17:33N 60°25' E 026°55'0 0.0
2014-Oct-27 16:31N 60°25' E 026°55'0 0.0
2014-Oct-27 15:31N 60°25' E 026°55'0 0.0
2014-Oct-27 14:31N 60°25' E 026°55'0 0.0
2014-Oct-27 13:31N 60°25' E 026°55'0 0.0
2014-Oct-27 12:31N 60°25' E 026°55'0 0.0
2014-Oct-27 11:31N 60°25' E 026°55'0 0.0
2014-Oct-27 10:31N 60°25' E 026°55'0 0.0
2014-Oct-27 09:31N 60°25' E 026°55'0 0.0
2014-Oct-27 08:31N 60°25' E 026°55'0 0.0
2014-Oct-27 07:31N 60°25' E 026°55'1 1.0
2014-Oct-27 06:33N 60°25' E 026°54'1615.5
2014-Oct-27 05:33N 60°16' E 026°28'1211.8
2014-Oct-27 04:33N 60°05' E 026°36'10913.5
2014-Oct-26 20:30N 59°54' E 030°14'0 0.0
2014-Oct-26 19:33N 59°54' E 030°14'0 0.0
2014-Oct-26 18:29N 59°54' E 030°14'0 0.0
2014-Oct-26 15:05N 59°54' E 030°14'0 0.0
2014-Oct-26 13:29N 59°54' E 030°14'0 0.0
2014-Oct-26 12:32N 59°54' E 030°14'0 0.1
2014-Oct-26 09:33N 59°54' E 030°14'0 0.0
2014-Oct-26 08:32N 59°54' E 030°14'1 0.6
2014-Oct-26 07:33N 59°53' E 030°13'1 0.3
2014-Oct-26 05:27N 59°53' E 030°12'0 0.0
2014-Oct-26 04:33N 59°53' E 030°12'0 0.0
2014-Oct-26 03:33N 59°53' E 030°12'0 0.0
2014-Oct-26 02:33N 59°53' E 030°12'0 0.0
2014-Oct-26 01:15N 59°53' E 030°12'0 0.0
2014-Oct-26 00:27N 59°53' E 030°12'0 0.0
2014-Oct-25 23:31N 59°53' E 030°12'0 0.0
2014-Oct-25 22:28N 59°53' E 030°12'0 0.0
2014-Oct-25 20:15N 59°53' E 030°12'0 0.0
2014-Oct-25 02:33N 59°53' E 030°12'92 8.8
2014-Oct-24 16:06N 59°60' E 027°09'710.5
2014-Oct-24 15:25N 59°59' E 026°55'910.5
2014-Oct-24 14:33N 59°59' E 026°37'1110.9
2014-Oct-24 13:32N 59°56' E 026°15'4910.9
2014-Oct-24 09:05N 59°45' E 024°41'810.8
2014-Oct-24 08:19N 59°43' E 024°25'1310.9
2014-Oct-24 07:06N 59°39' E 024°00'610.9
2014-Oct-24 06:33N 59°37' E 023°49'1110.9
2014-Oct-24 05:33N 59°34' E 023°29'30914.5
2014-Oct-23 08:16N 55°59' E 016°33'6016.0
2014-Oct-23 04:33N 55°30' E 015°00'1616.0
2014-Oct-23 03:33N 55°22' E 014°36'1616.1
2014-Oct-23 02:34N 55°09' E 014°19'1615.6
2014-Oct-23 01:33N 54°60' E 013°58'1616.1
2014-Oct-23 00:32N 54°54' E 013°31'7123.9
2014-Oct-22 21:33N 54°28' E 011°37'1514.9
2014-Oct-22 20:33N 54°25' E 012°02'13312.1
2014-Oct-22 09:33N 56°37' E 011°42'1514.6
2014-Oct-22 08:33N 56°51' E 011°48'1615.6
2014-Oct-22 07:34N 57°06' E 011°38'1515.3
2014-Oct-22 06:34N 57°20' E 011°28'1514.8
2014-Oct-22 05:34N 57°33' E 011°13'1515.4
2014-Oct-22 04:34N 57°43' E 010°52'1515.3
2014-Oct-22 03:33N 57°47' E 010°24'16615.1
2014-Oct-21 16:33N 55°39' E 007°10'1616.1
2014-Oct-21 15:33N 55°23' E 007°05'1615.7
2014-Oct-21 14:33N 55°07' E 007°05'1615.6
2014-Oct-21 13:33N 54°52' E 007°06'3815.8
2014-Oct-21 11:10N 54°16' E 007°28'1215.9
2014-Oct-21 10:25N 54°08' E 007°43'1415.9
2014-Oct-21 09:33N 54°02' E 008°03'1313.4
2014-Oct-21 08:33N 53°59' E 008°26'1312.6
2014-Oct-21 07:33N 53°52' E 008°44'  

Dump ship's entire track history